createdAt,value
2022-08-16T00:02:00.042Z,37.26
2022-08-16T00:04:34.368Z,36.82
2022-08-16T00:07:10.287Z,37.11
2022-08-16T00:09:48.704Z,37.43
2022-08-16T00:12:27.750Z,37.26
2022-08-16T00:15:05.946Z,37.33
2022-08-16T00:17:56.908Z,37.44
2022-08-16T00:20:32.927Z,36.95
2022-08-16T00:23:07.329Z,37.07
2022-08-16T00:26:34.747Z,37.28
2022-08-16T00:28:42.073Z,37.04
2022-08-16T00:31:24.128Z,37.48
2022-08-16T00:34:07.478Z,37.30
2022-08-16T00:36:49.733Z,37.55
2022-08-16T00:39:43.166Z,37.39
2022-08-16T00:42:29.680Z,37.59
2022-08-16T00:45:16.546Z,37.71
2022-08-16T00:47:50.519Z,37.58
2022-08-16T00:50:35.664Z,37.20
2022-08-16T00:53:13.322Z,37.40
2022-08-16T00:55:52.249Z,37.70
2022-08-16T00:58:35.335Z,37.30
2022-08-16T01:01:12.889Z,37.62
2022-08-16T01:03:52.325Z,37.56
2022-08-16T01:06:40.297Z,37.73
2022-08-16T01:09:24.390Z,37.23
2022-08-16T01:12:11.293Z,37.26
2022-08-16T01:15:08.381Z,37.28
2022-08-16T01:17:56.125Z,36.95
2022-08-16T01:20:41.625Z,36.56
2022-08-16T01:23:24.637Z,36.75
2022-08-16T01:26:35.169Z,36.03
2022-08-16T01:29:20.833Z,36.55
2022-08-16T01:32:31.921Z,35.87
2022-08-16T01:35:26.792Z,36.31
2022-08-16T01:38:19.449Z,36.21
2022-08-16T01:40:58.049Z,35.89
2022-08-16T01:43:40.027Z,36.05
2022-08-16T01:46:41.846Z,35.43
2022-08-16T01:49:45.473Z,35.41
2022-08-16T01:52:28.154Z,35.36
2022-08-16T01:55:27.002Z,35.41
2022-08-16T01:58:12.605Z,35.38
2022-08-16T02:00:55.124Z,35.72
2022-08-16T02:03:35.582Z,35.54
2022-08-16T02:06:34.199Z,35.28
2022-08-16T02:09:12.803Z,35.09
2022-08-16T02:11:53.371Z,35.62
2022-08-16T02:14:35.935Z,35.27
2022-08-16T02:17:14.772Z,35.56
2022-08-16T02:19:59.702Z,35.31
2022-08-16T02:22:39.972Z,35.77
2022-08-16T02:25:52.136Z,36.59
2022-08-16T02:28:35.906Z,36.58
2022-08-16T02:31:13.000Z,37.03
2022-08-16T02:33:50.061Z,36.83
2022-08-16T02:36:47.927Z,37.29
2022-08-16T02:39:36.354Z,37.33
2022-08-16T02:42:11.983Z,37.17
2022-08-16T02:44:49.360Z,37.73
2022-08-16T02:47:29.383Z,37.25
2022-08-16T02:50:55.428Z,37.45
2022-08-16T02:53:07.791Z,37.77
2022-08-16T02:55:50.555Z,37.76
2022-08-16T02:58:25.088Z,38.04
2022-08-16T03:00:59.684Z,37.74
2022-08-16T03:04:40.924Z,38.10
2022-08-16T03:06:44.732Z,38.02
2022-08-16T03:09:32.685Z,38.25
2022-08-16T03:12:09.219Z,38.13
2022-08-16T03:14:53.163Z,38.38
2022-08-16T03:17:32.267Z,38.42
2022-08-16T03:20:11.881Z,38.04
2022-08-16T03:22:52.655Z,38.13
2022-08-16T03:25:44.231Z,38.30
2022-08-16T03:28:18.688Z,38.01
2022-08-16T03:30:55.285Z,37.92
2022-08-16T03:33:27.419Z,38.00
2022-08-16T03:36:29.970Z,37.85
2022-08-16T03:39:15.021Z,38.08
2022-08-16T03:42:02.998Z,38.42
2022-08-16T03:44:49.525Z,38.42
2022-08-16T03:47:29.931Z,38.20
2022-08-16T03:50:26.068Z,38.15
2022-08-16T03:53:07.283Z,38.63
2022-08-16T03:55:45.314Z,38.55
2022-08-16T03:58:19.417Z,38.54
2022-08-16T04:00:59.243Z,38.43
2022-08-16T04:03:40.722Z,38.46
2022-08-16T04:06:15.240Z,38.56
2022-08-16T04:08:57.346Z,38.52
2022-08-16T04:11:38.752Z,38.26
2022-08-16T04:14:32.414Z,38.53
2022-08-16T04:17:10.584Z,38.43
2022-08-16T04:19:46.877Z,38.67
2022-08-16T04:22:27.376Z,38.57
2022-08-16T04:25:06.069Z,38.03
2022-08-16T04:27:54.267Z,38.31
2022-08-16T04:30:32.262Z,38.09
2022-08-16T04:33:15.457Z,38.32
2022-08-16T04:35:51.205Z,38.02
2022-08-16T04:38:25.692Z,37.66
2022-08-16T04:41:12.051Z,37.67
2022-08-16T04:43:51.627Z,37.82
2022-08-16T04:47:03.162Z,37.83
2022-08-16T04:49:28.498Z,37.39
2022-08-16T04:52:33.694Z,37.60
2022-08-16T04:55:17.646Z,37.43
2022-08-16T04:57:55.683Z,37.73
2022-08-16T05:00:37.889Z,37.53
2022-08-16T05:03:27.253Z,37.22
2022-08-16T05:06:11.399Z,37.26
2022-08-16T05:08:50.593Z,37.76
2022-08-16T05:11:34.606Z,37.24
2022-08-16T05:14:11.854Z,37.42
2022-08-16T05:17:08.918Z,37.17
2022-08-16T05:19:46.871Z,37.08
2022-08-16T05:22:39.562Z,37.24
2022-08-16T05:25:24.358Z,37.68
2022-08-16T05:28:37.459Z,37.31
2022-08-16T05:31:13.529Z,37.01
2022-08-16T05:33:53.659Z,37.65
2022-08-16T05:36:39.019Z,37.55
2022-08-16T05:39:23.156Z,37.25
2022-08-16T05:42:01.596Z,37.60
2022-08-16T05:44:29.229Z,37.65
2022-08-16T05:47:04.899Z,37.57
2022-08-16T05:49:39.324Z,37.35
2022-08-16T05:52:13.765Z,37.37
2022-08-16T05:55:01.536Z,37.18
2022-08-16T05:57:39.613Z,37.43
2022-08-16T06:00:22.629Z,37.06
2022-08-16T06:02:54.812Z,37.31
2022-08-16T06:05:50.897Z,37.10
2022-08-16T06:08:31.633Z,37.20
2022-08-16T06:11:10.505Z,37.12
2022-08-16T06:13:42.906Z,37.27
2022-08-16T06:16:18.046Z,37.40
2022-08-16T06:18:55.185Z,38.09
2022-08-16T06:21:24.063Z,39.16
2022-08-16T06:24:01.183Z,39.83
2022-08-16T06:26:37.048Z,39.65
2022-08-16T06:29:08.280Z,39.59
2022-08-16T06:31:49.230Z,39.21
2022-08-16T06:34:54.235Z,39.86
2022-08-16T06:37:37.098Z,40.29
2022-08-16T06:40:18.509Z,40.20
2022-08-16T06:43:02.017Z,41.11
2022-08-16T06:45:45.271Z,42.26
2022-08-16T06:48:33.092Z,42.75
2022-08-16T06:51:10.333Z,42.66
2022-08-16T06:53:46.145Z,40.48
2022-08-16T06:56:23.063Z,38.86
2022-08-16T06:59:17.820Z,37.47
2022-08-16T07:01:55.155Z,36.44
2022-08-16T07:04:41.599Z,36.71
2022-08-16T07:07:22.537Z,36.51
2022-08-16T07:09:59.164Z,36.46
2022-08-16T07:12:47.653Z,36.86
2022-08-16T07:15:32.107Z,37.02
2022-08-16T07:18:07.599Z,36.54
2022-08-16T07:20:48.420Z,35.68
2022-08-16T07:23:37.359Z,34.85
2022-08-16T07:26:25.214Z,34.69
2022-08-16T07:29:02.770Z,34.08
2022-08-16T07:31:38.455Z,33.84
2022-08-16T07:34:19.162Z,34.17
2022-08-16T07:36:58.020Z,33.53
2022-08-16T07:39:43.268Z,33.29
2022-08-16T07:42:28.262Z,34.22
2022-08-16T07:45:10.289Z,34.73
2022-08-16T07:47:45.456Z,35.75
2022-08-16T07:50:58.402Z,36.35
2022-08-16T07:53:21.730Z,37.01
2022-08-16T07:55:53.993Z,37.01
2022-08-16T07:58:36.203Z,36.86
2022-08-16T08:01:30.378Z,37.28
2022-08-16T08:04:04.250Z,36.88
2022-08-16T08:06:44.896Z,37.11
2022-08-16T08:09:21.154Z,38.17
2022-08-16T08:11:59.937Z,37.32
2022-08-16T08:14:46.162Z,37.15
2022-08-16T08:17:42.148Z,37.50
2022-08-16T08:20:29.462Z,36.77
2022-08-16T08:23:12.954Z,36.35
2022-08-16T08:25:55.837Z,36.21
2022-08-16T08:28:32.177Z,35.69
2022-08-16T08:31:11.307Z,34.34
2022-08-16T08:33:51.569Z,34.04
2022-08-16T08:36:37.074Z,34.63
2022-08-16T08:39:54.861Z,34.26
2022-08-16T08:42:34.509Z,34.25
2022-08-16T08:45:20.192Z,34.21
2022-08-16T08:48:10.763Z,34.41
2022-08-16T08:51:10.241Z,35.37
2022-08-16T08:53:58.529Z,35.65
2022-08-16T08:56:37.474Z,35.54
2022-08-16T08:59:19.703Z,35.71
2022-08-16T09:02:03.228Z,35.35
2022-08-16T09:04:52.094Z,34.77
2022-08-16T09:07:28.234Z,35.03
2022-08-16T09:10:20.465Z,35.23
2022-08-16T09:13:04.728Z,34.25
2022-08-16T09:16:00.148Z,34.19
2022-08-16T09:18:35.296Z,34.63
2022-08-16T09:21:09.541Z,34.16
2022-08-16T09:23:47.372Z,33.52
2022-08-16T09:26:45.561Z,33.20
2022-08-16T09:29:45.000Z,33.08
2022-08-16T09:32:28.840Z,33.52
2022-08-16T09:35:07.289Z,34.18
2022-08-16T09:37:46.377Z,33.39
2022-08-16T09:40:42.381Z,33.84
2022-08-16T09:43:58.647Z,34.22
2022-08-16T09:46:44.464Z,33.90
2022-08-16T09:49:04.955Z,34.09
2022-08-16T09:51:40.831Z,34.13
2022-08-16T09:54:17.178Z,33.85
2022-08-16T09:56:56.243Z,34.53
2022-08-16T09:59:30.470Z,34.75
2022-08-16T10:01:59.784Z,34.58
2022-08-16T10:04:44.305Z,34.81
2022-08-16T10:07:44.436Z,35.30
2022-08-16T10:10:18.856Z,35.32
2022-08-16T10:13:16.257Z,35.50
2022-08-16T10:15:55.754Z,35.57
2022-08-16T10:18:56.401Z,35.89
2022-08-16T10:21:29.096Z,35.98
2022-08-16T10:24:05.702Z,36.46
2022-08-16T10:27:19.781Z,36.01
2022-08-16T10:30:01.033Z,36.30
2022-08-16T10:32:32.461Z,36.13
2022-08-16T10:35:06.390Z,36.07
2022-08-16T10:37:42.784Z,36.36
2022-08-16T10:40:28.733Z,35.95
2022-08-16T10:43:04.599Z,35.60
2022-08-16T10:45:40.675Z,36.33
2022-08-16T10:48:27.083Z,36.47
2022-08-16T10:51:05.432Z,36.30
2022-08-16T10:53:39.549Z,36.84
2022-08-16T10:56:56.199Z,37.08
2022-08-16T10:59:44.015Z,36.84
2022-08-16T11:02:59.116Z,37.08
2022-08-16T11:08:45.005Z,36.83
2022-08-16T11:11:22.525Z,37.46
2022-08-16T11:14:00.058Z,37.48
2022-08-16T11:17:10.477Z,36.66
2022-08-16T11:22:48.543Z,37.29
2022-08-16T11:31:28.177Z,37.24
2022-08-16T11:34:03.518Z,37.40
2022-08-16T11:36:38.755Z,37.47
2022-08-16T11:39:25.101Z,36.98
2022-08-16T11:42:01.171Z,37.52
2022-08-16T11:44:52.468Z,37.62
2022-08-16T11:47:29.203Z,37.58
2022-08-16T11:50:13.920Z,37.60
2022-08-16T11:52:47.313Z,37.81
2022-08-16T11:55:23.603Z,37.79
2022-08-16T11:57:57.738Z,37.82
2022-08-16T12:00:51.007Z,38.09
2022-08-16T12:03:35.103Z,38.06
2022-08-16T12:06:25.008Z,37.97
2022-08-16T12:09:06.263Z,38.46
2022-08-16T12:11:39.562Z,38.36
2022-08-16T12:14:19.777Z,38.16
2022-08-16T12:16:57.555Z,37.67
2022-08-16T12:19:35.952Z,37.91
2022-08-16T12:22:18.583Z,38.02
2022-08-16T12:24:58.509Z,37.75
2022-08-16T12:27:29.898Z,38.40
2022-08-16T12:30:26.345Z,37.05
2022-08-16T12:33:06.674Z,37.55
2022-08-16T12:35:39.858Z,37.51
2022-08-16T12:38:40.925Z,37.27
2022-08-16T12:41:08.121Z,37.38
2022-08-16T12:43:45.345Z,37.55
2022-08-16T12:46:18.590Z,37.88
2022-08-16T12:49:06.421Z,37.80
2022-08-16T12:51:59.662Z,38.15
2022-08-16T12:54:31.566Z,38.25
2022-08-16T12:57:06.906Z,38.27
2022-08-16T12:59:56.267Z,38.72
2022-08-16T13:02:33.305Z,38.38
2022-08-16T13:05:07.119Z,38.26
2022-08-16T13:07:42.612Z,37.97
2022-08-16T13:10:38.070Z,38.24
2022-08-16T13:13:16.495Z,38.08
2022-08-16T13:15:58.281Z,37.39
2022-08-16T13:18:36.813Z,37.23
2022-08-16T13:21:23.810Z,37.13
2022-08-16T13:24:05.792Z,36.88
2022-08-16T13:26:41.033Z,37.10
2022-08-16T13:29:16.907Z,36.62
2022-08-16T13:31:56.514Z,36.90
2022-08-16T13:34:27.318Z,36.39
2022-08-16T13:37:04.308Z,36.20
2022-08-16T13:39:38.012Z,36.57
2022-08-16T13:42:13.758Z,36.13
2022-08-16T13:44:58.058Z,36.01
2022-08-16T13:47:34.725Z,35.53
2022-08-16T13:50:05.746Z,35.46
2022-08-16T13:52:46.014Z,35.15
2022-08-16T13:55:18.349Z,35.21
2022-08-16T13:58:36.245Z,35.47
2022-08-16T14:00:56.253Z,35.51
2022-08-16T14:03:31.382Z,35.20
2022-08-16T14:06:06.301Z,35.78
2022-08-16T14:08:42.181Z,36.06
2022-08-16T14:11:19.584Z,35.87
2022-08-16T14:13:54.039Z,35.17
2022-08-16T14:16:35.514Z,35.95
2022-08-16T14:19:04.770Z,36.24
2022-08-16T14:21:45.641Z,36.15
2022-08-16T14:24:30.698Z,36.27
2022-08-16T14:27:09.837Z,35.99
2022-08-16T14:29:53.449Z,36.47
2022-08-16T14:32:34.688Z,36.58
2022-08-16T14:35:17.043Z,36.34
2022-08-16T14:37:57.109Z,36.93
2022-08-16T14:40:43.463Z,37.27
2022-08-16T14:43:18.681Z,37.13
2022-08-16T14:46:02.831Z,36.75
2022-08-16T14:48:47.582Z,36.89
2022-08-16T14:51:27.418Z,36.20
2022-08-16T14:54:11.179Z,36.35
2022-08-16T14:56:54.979Z,37.17
2022-08-16T14:59:31.365Z,36.74
2022-08-16T15:02:33.858Z,37.03
2022-08-16T15:05:11.037Z,37.66
2022-08-16T15:07:46.085Z,36.46
2022-08-16T15:10:39.035Z,35.57
2022-08-16T15:13:14.129Z,35.48
2022-08-16T15:16:00.306Z,35.18
2022-08-16T15:18:39.212Z,35.19
2022-08-16T15:21:13.402Z,35.15
2022-08-16T15:23:47.621Z,34.85
2022-08-16T15:26:34.741Z,35.17
2022-08-16T15:29:11.336Z,35.23
2022-08-16T15:32:00.959Z,35.31
2022-08-16T15:34:44.954Z,34.35
2022-08-16T15:37:17.139Z,33.81
2022-08-16T15:39:49.242Z,33.86
2022-08-16T15:42:29.378Z,34.25
2022-08-16T15:45:11.432Z,34.77
2022-08-16T15:47:56.665Z,35.82
2022-08-16T15:50:39.512Z,35.43
2022-08-16T15:53:22.682Z,36.39
2022-08-16T15:56:03.206Z,36.58
2022-08-16T15:58:55.847Z,36.86
2022-08-16T16:01:32.477Z,36.91
2022-08-16T16:04:10.221Z,37.03
2022-08-16T16:06:48.996Z,36.46
2022-08-16T16:09:37.015Z,36.91
2022-08-16T16:12:41.602Z,37.01
2022-08-16T16:15:01.869Z,37.18
2022-08-16T16:17:33.107Z,37.44
2022-08-16T16:20:14.722Z,37.78
2022-08-16T16:22:46.343Z,37.65
2022-08-16T16:25:20.802Z,38.08
2022-08-16T16:28:00.661Z,37.77
2022-08-16T16:30:44.389Z,37.82
2022-08-16T16:33:24.763Z,38.03
2022-08-16T16:35:57.256Z,37.95
2022-08-16T16:38:39.276Z,37.55
2022-08-16T16:41:28.230Z,37.07
2022-08-16T16:43:57.568Z,36.75
2022-08-16T16:46:40.586Z,36.29
2022-08-16T16:49:19.479Z,36.49
2022-08-16T16:52:07.276Z,36.26
2022-08-16T16:54:50.789Z,36.24
2022-08-16T16:57:50.881Z,36.04
2022-08-16T17:00:38.355Z,36.14
2022-08-16T17:03:17.441Z,35.86
2022-08-16T17:05:57.084Z,35.95
2022-08-16T17:08:33.126Z,35.93
2022-08-16T17:11:08.303Z,36.08
2022-08-16T17:13:43.305Z,36.26
2022-08-16T17:16:18.774Z,36.40
2022-08-16T17:19:15.057Z,36.38
2022-08-16T17:22:14.279Z,36.86
2022-08-16T17:24:52.263Z,37.01
2022-08-16T17:27:32.530Z,37.36
2022-08-16T17:30:19.613Z,37.59
2022-08-16T17:33:03.752Z,37.54
2022-08-16T17:35:39.063Z,37.74
2022-08-16T17:38:39.062Z,38.07
2022-08-16T17:41:18.575Z,38.10
2022-08-16T17:43:55.358Z,38.26
2022-08-16T17:46:51.210Z,38.56
2022-08-16T17:49:20.805Z,38.74
2022-08-16T17:52:00.179Z,38.74
2022-08-16T17:54:38.489Z,38.94
2022-08-16T17:57:13.606Z,38.98
2022-08-16T17:59:53.308Z,39.45
2022-08-16T18:02:43.587Z,39.41
2022-08-16T18:05:18.420Z,39.20
2022-08-16T18:07:51.661Z,39.23
2022-08-16T18:10:32.790Z,39.81
2022-08-16T18:13:16.213Z,39.20
2022-08-16T18:16:01.243Z,39.75
2022-08-16T18:18:37.509Z,39.86
2022-08-16T18:21:27.456Z,39.82
2022-08-16T18:24:06.013Z,39.72
2022-08-16T18:26:37.045Z,39.78
2022-08-16T18:29:13.663Z,39.72
2022-08-16T18:31:50.971Z,39.78
2022-08-16T18:34:29.507Z,39.85
2022-08-16T18:37:04.612Z,39.60
2022-08-16T18:39:38.426Z,39.97
2022-08-16T18:42:29.723Z,39.72
2022-08-16T18:45:07.004Z,39.81
2022-08-16T18:47:39.649Z,39.86
2022-08-16T18:50:17.153Z,40.02
2022-08-16T18:52:57.455Z,39.78
2022-08-16T18:55:33.558Z,39.71
2022-08-16T18:58:17.372Z,39.52
2022-08-16T19:00:56.470Z,39.75
2022-08-16T19:03:35.408Z,39.90
2022-08-16T19:06:13.667Z,39.58
2022-08-16T19:08:50.241Z,39.87
2022-08-16T19:11:30.225Z,39.60
2022-08-16T19:14:08.731Z,39.83
2022-08-16T19:16:47.573Z,39.56
2022-08-16T19:19:27.368Z,39.53
2022-08-16T19:22:03.220Z,39.50
2022-08-16T19:24:39.612Z,39.65
2022-08-16T19:27:19.543Z,39.36
2022-08-16T19:29:54.514Z,39.50
2022-08-16T19:32:29.178Z,39.41
2022-08-16T19:35:04.939Z,39.47
2022-08-16T19:37:46.086Z,39.58
2022-08-16T19:40:37.770Z,39.51
2022-08-16T19:43:20.055Z,39.61
2022-08-16T19:45:59.036Z,39.98
2022-08-16T19:48:35.257Z,39.69
2022-08-16T19:51:09.178Z,39.45
2022-08-16T19:53:42.974Z,39.65
2022-08-16T19:56:15.964Z,39.88
2022-08-16T19:59:16.416Z,39.40
2022-08-16T20:01:42.272Z,39.69
2022-08-16T20:04:25.964Z,39.44
2022-08-16T20:07:04.048Z,39.59
2022-08-16T20:09:38.035Z,39.45
2022-08-16T20:12:34.369Z,39.57
2022-08-16T20:15:15.943Z,39.52
2022-08-16T20:17:52.533Z,39.80
2022-08-16T20:20:27.374Z,39.71
2022-08-16T20:23:04.945Z,39.61
2022-08-16T20:25:42.740Z,39.37
2022-08-16T20:28:53.538Z,39.55
2022-08-16T20:31:23.793Z,39.63
2022-08-16T20:33:57.827Z,39.52
2022-08-16T20:36:34.837Z,39.36
2022-08-16T20:39:16.741Z,39.36
2022-08-16T20:41:50.894Z,39.37
2022-08-16T20:44:29.606Z,39.80
2022-08-16T20:47:06.179Z,39.65
2022-08-16T20:49:48.207Z,39.83
2022-08-16T20:52:23.666Z,39.71
2022-08-16T20:54:55.751Z,39.73
2022-08-16T20:57:34.759Z,39.45
2022-08-16T21:00:11.433Z,39.32
2022-08-16T21:02:49.784Z,39.15
2022-08-16T21:05:31.704Z,39.85
2022-08-16T21:08:52.681Z,39.72
2022-08-16T21:11:00.894Z,39.55
2022-08-16T21:13:42.497Z,39.23
2022-08-16T21:16:16.993Z,39.54
2022-08-16T21:18:51.518Z,39.39
2022-08-16T21:21:32.127Z,39.65
2022-08-16T21:24:10.559Z,39.54
2022-08-16T21:26:41.073Z,39.28
2022-08-16T21:29:42.983Z,39.46
2022-08-16T21:32:35.417Z,39.63
2022-08-16T21:35:18.716Z,39.35
2022-08-16T21:38:29.252Z,39.42
2022-08-16T21:40:52.091Z,39.36
2022-08-16T21:43:32.702Z,39.48
2022-08-16T21:46:07.258Z,39.50
2022-08-16T21:48:46.181Z,39.49
2022-08-16T21:51:22.298Z,39.41
2022-08-16T21:53:56.997Z,39.71
2022-08-16T21:56:30.224Z,39.28
2022-08-16T21:59:07.116Z,39.40
2022-08-16T22:01:46.827Z,39.42
2022-08-16T22:04:37.174Z,39.29
2022-08-16T22:07:19.063Z,39.66
2022-08-16T22:09:58.129Z,39.37
2022-08-16T22:12:59.584Z,39.43
2022-08-16T22:15:36.015Z,39.65
2022-08-16T22:18:12.659Z,39.35
2022-08-16T22:20:52.170Z,39.64
2022-08-16T22:23:28.683Z,39.43
2022-08-16T22:25:59.278Z,39.44
2022-08-16T22:28:30.894Z,39.59
2022-08-16T22:31:07.524Z,39.65
2022-08-16T22:33:40.598Z,39.53
2022-08-16T22:36:19.985Z,39.48
2022-08-16T22:38:57.405Z,39.73
2022-08-16T22:41:33.440Z,39.57
2022-08-16T22:44:08.218Z,39.68
2022-08-16T22:46:45.264Z,39.65
2022-08-16T22:49:19.008Z,39.50
2022-08-16T22:51:54.764Z,39.51
2022-08-16T22:54:47.755Z,39.63
2022-08-16T22:57:21.789Z,39.56
2022-08-16T23:00:00.699Z,39.47
2022-08-16T23:03:04.956Z,39.38
2022-08-16T23:05:42.775Z,39.56
2022-08-16T23:08:32.221Z,39.34
2022-08-16T23:11:23.387Z,39.82
2022-08-16T23:13:59.450Z,39.21
2022-08-16T23:16:36.093Z,39.54
2022-08-16T23:19:16.933Z,39.57
2022-08-16T23:21:51.872Z,39.78
2022-08-16T23:24:24.704Z,39.73
2022-08-16T23:26:55.151Z,39.28
2022-08-16T23:29:34.148Z,39.40
2022-08-16T23:32:14.151Z,39.23
2022-08-16T23:34:51.283Z,39.55
2022-08-16T23:37:37.045Z,39.58
2022-08-16T23:40:12.417Z,39.65
2022-08-16T23:43:23.131Z,39.44
2022-08-16T23:46:02.387Z,39.14
2022-08-16T23:49:56.031Z,39.32
2022-08-16T23:51:43.762Z,39.70
2022-08-16T23:54:17.225Z,39.45
2022-08-16T23:56:59.772Z,39.51
2022-08-16T23:59:36.765Z,39.39
